Airfield :
LOGIN :

Register | Disclaimer

   EN    FR    IT 

 










Legend :    VFR   Marginal VFR   IFR   Intensive IFR   Very Intensive IFR
Visi :
Ceiling :
>= 8 km
>= 3000ft
5 to 8 km
1000 to 3000 ft
1500m to 5 km
500 to 1000 ft
800 to 1500m
200 to 500 ft
< 800m
< 200 ft
Symbols :   Thunderstorms  Fog  Heavy snow  Heavy precipitations  Wind > 20 kt
SIGMETs :     Misc.  Thunderstorms  Icing  Turbulence  Mountain Waves  Volcanic Ashes






- Airport Elevation : 324 ft
- IATA code : KVB


ESGR - Skovde

CURRENT METAR :
  • 180620Z AUTO 08006KT 040V110 9999 SCT009/// OVC055/// 05/05 Q1015

EXPIRED METARs :
  • 180550Z AUTO 08008KT 050V120 9999 SCT009/// BKN039/// OVC053/// 06/05 Q1015
  • 180520Z AUTO 07005KT 040V110 9999 BKN007/// BKN009/// OVC043/// 05/05 Q1015
  • 180450Z AUTO 06007KT 9999 OVC007/// 05/05 Q1015
  • 180420Z AUTO 08007KT 040V110 9999 OVC007/// 05/05 Q1016 RESHUP
  • 180350Z AUTO 09006KT 9999 OVC007/// 05/05 Q1016 RESHUP RERA

TAF N/A



MET'MAP, your aeronautical weather chart ! - Copyright ORBIFLY December 2007 - Disclaimer

ORBIFLY MET'MAP TEAM :

Programming & Development : Alexandra Zaïnal
Concept & Development : Baudouin d'Aumeries
Co-Development & Prog : Marc-Olivier Méhu
Technical & hardware support : Manuel Goepfert

Contact : metmap@orbifly.com




SOURCES & CREDITS :

   NOAA